Terminal Aerodrome Forecast
Issued by NWS

Home | Current Version | Previous Version | Text Only | Print | Product List | Glossary On
Versions: 1 2 3 4 5 6 7 8 9 10 11 12 13 14 15
470
FTUS43 KAPX 231120
TAFTVC
TAF
KTVC 231120Z 2312/2412 VRB03KT P6SM SCT120
     FM231500 19009KT P6SM BKN090
     FM232300 16009KT P6SM OVC080
     FM240200 16008KT P6SM OVC060 WS020/19035KT
     FM240500 18009KT 6SM -RA OVC015 WS020/22035KT
     FM241100 21005KT 5SM -RA OVC010 WS020/22035KT=

USA.gov is the U.S. government's official web portal to all federal, state and local government web resources and services.